Archival Weather

NSFA McMurdo Sound

NSFA McMurdo Sound, Antarctica (NZCM)

Report from: Friday, September 23, 2022 1:59 PM UTC
Current time: Sunday, December 4, 2022 12:06 PM UTC

Current weather
Weather history
Weather forecast

Present weatherLight snow, mist
Temperature-18.5°C (-1.3°F)
Wind chill-29.5°C (-21.0°F)
Dew point-23.1°C (-9.6°F)
Winds 13 kts (6.7 m/s, 15 mph) East (100°)
Wind gusts 23 kts (11.8 m/s, 26.5 mph)
Visibility1.7 mi. (2.7 km)
Clouds Ceiling: Overcast 1,400 ft. (427 m)
Altimeter28.62 in.Hg (969 mB)
Precip. events Snow ended 1:57 PM
Snow began 1:59 PM
Relative humidity67 %
Density altitude-2,698 ft. (-822 m)
Sea-level pressure107.0 kPa (1070 mB, 31.59 in.Hg)
Remarks Fully automated report
System requires maintenance
Special weather observation
Automated weather observing station with precipitation discriminator
Flight conditions Instrument Meteorological Conditions
Raw dataSPECI NZCM 231359Z AUTO 10013G23KT 2700 -SN BR OVC014 M18/M23 A2862 RMK AO2 SNE1357B1359 SLP697 T11851231 $
An error has occurred. This application may no longer respond until reloaded. Reload 🗙